Time;durP1;ratioP1;P1;durP2;ratioP2;P2;SDS_P1;SDS_P2;PMS_P1;PMS_P2;Temp;Humidity;BMP_temperature;BMP_pressure;BME280_temperature;BME280_humidity;BME280_pressure;Samples;Min_cycle;Max_cycle;Signal;HPM_P1;HPM_P2
2021/12/08 00:01:01;;;;;;;1.20;1.10;;;;;;;;;;5025469;28;20452;-87
2021/12/08 00:03:30;;;;;;;0.80;0.80;;;;;;;;;;5045015;28;20849;-88
2021/12/08 00:05:56;;;;;;;0.90;0.90;;;;;;;;;;5048877;28;20833;-89
2021/12/08 00:08:23;;;;;;;1.00;0.90;;;;;;;;;;5048807;28;20444;-89
2021/12/08 00:13:22;;;;;;;3.17;1.50;;;;;;;;;;5034820;28;20486;-89
2021/12/08 00:15:50;;;;;;;9.50;2.40;;;;;;;;;;5028071;28;20422;-87
2021/12/08 00:18:17;;;;;;;0.90;0.90;;;;;;;;;;5028832;28;20500;-88
2021/12/08 00:20:45;;;;;;;1.07;0.97;;;;;;;;;;5046459;28;21222;-89
2021/12/08 00:23:12;;;;;;;1.17;1.07;;;;;;;;;;5039030;28;20429;-91
2021/12/08 00:25:38;;;;;;;1.43;1.33;;;;;;;;;;5049302;28;20508;-88
2021/12/08 00:28:07;;;;;;;0.80;0.70;;;;;;;;;;5047977;28;20437;-89
2021/12/08 00:31:09;;;;;;;1.93;1.83;;;;;;;;;;5048320;28;20429;-87
2021/12/08 00:34:19;;;;;;;1.73;1.63;;;;;;;;;;5044751;28;20481;-89
2021/12/08 00:36:42;;;;;;;2.77;2.50;;;;;;;;;;5044641;28;20429;-89
2021/12/08 00:39:08;;;;;;;0.80;0.80;;;;;;;;;;5031147;28;20485;-88
2021/12/08 00:41:34;;;;;;;1.20;1.10;;;;;;;;;;5029205;28;20479;-89
2021/12/08 00:44:00;;;;;;;1.00;0.90;;;;;;;;;;5044239;28;20442;-88
2021/12/08 00:46:27;;;;;;;1.10;1.00;;;;;;;;;;5048642;28;20429;-89
2021/12/08 00:52:07;;;;;;;1.93;1.83;;;;;;;;;;5019062;28;20465;-88
2021/12/08 00:54:33;;;;;;;1.17;1.07;;;;;;;;;;5034679;28;20451;-88
2021/12/08 00:57:00;;;;;;;1.57;1.50;;;;;;;;;;5032327;28;21006;-88
2021/12/08 00:59:26;;;;;;;4.83;2.20;;;;;;;;;;5027916;28;20529;-88
2021/12/08 01:01:52;;;;;;;8.20;3.03;;;;;;;;;;5043457;28;20429;-87
2021/12/08 01:04:18;;;;;;;0.80;0.80;;;;;;;;;;5052799;28;20441;-87
2021/12/08 01:06:44;;;;;;;2.23;2.13;;;;;;;;;;5048267;28;20421;-88
2021/12/08 01:10:01;;;;;;;1.83;1.33;;;;;;;;;;5031793;28;20453;-88
2021/12/08 01:12:21;;;;;;;1.00;0.90;;;;;;;;;;5045227;28;20484;-89
2021/12/08 01:14:54;;;;;;;1.30;1.20;;;;;;;;;;5033674;28;20444;-88
2021/12/08 01:17:20;;;;;;;1.20;1.10;;;;;;;;;;5032099;28;20880;-88
2021/12/08 01:19:46;;;;;;;1.00;0.90;;;;;;;;;;5043548;28;20448;-89
2021/12/08 01:22:37;;;;;;;1.10;1.00;;;;;;;;;;5029392;28;20425;-88
2021/12/08 01:25:04;;;;;;;1.20;1.10;;;;;;;;;;5040754;28;20501;-88
2021/12/08 01:27:36;;;;;;;0.90;0.90;;;;;;;;;;5016308;28;20454;-89
2021/12/08 01:30:13;;;;;;;2.90;2.30;;;;;;;;;;5027630;28;20872;-88
2021/12/08 01:32:39;;;;;;;0.83;0.83;;;;;;;;;;5042080;28;20488;-87
2021/12/08 01:35:06;;;;;;;1.30;1.23;;;;;;;;;;5051561;28;20425;-87
2021/12/08 01:37:34;;;;;;;2.43;2.30;;;;;;;;;;5033516;28;21021;-88
2021/12/08 01:40:00;;;;;;;0.93;0.90;;;;;;;;;;5032630;28;20449;-87
2021/12/08 01:42:32;;;;;;;1.30;1.20;;;;;;;;;;5051557;28;20816;-89
2021/12/08 01:47:42;;;;;;;3.00;2.80;;;;;;;;;;5039517;28;20433;-88
2021/12/08 01:50:37;;;;;;;1.43;1.33;;;;;;;;;;5032689;28;20448;-88
2021/12/08 01:53:04;;;;;;;1.73;1.63;;;;;;;;;;5025416;28;20488;-89
2021/12/08 01:55:39;;;;;;;0.80;0.80;;;;;;;;;;5051279;28;21027;-88
2021/12/08 01:58:06;;;;;;;4.10;2.03;;;;;;;;;;5024234;28;20732;-88
2021/12/08 02:00:49;;;;;;;1.10;1.00;;;;;;;;;;5031418;28;20948;-89
2021/12/08 02:03:15;;;;;;;0.90;0.90;;;;;;;;;;5022586;28;20437;-89
2021/12/08 02:05:41;;;;;;;0.90;0.90;;;;;;;;;;5027783;28;20425;-89
2021/12/08 02:08:07;;;;;;;2.27;1.47;;;;;;;;;;5046358;28;20440;-89
2021/12/08 02:10:43;;;;;;;0.87;0.87;;;;;;;;;;5044242;28;20436;-88
2021/12/08 02:13:09;;;;;;;0.80;0.80;;;;;;;;;;5050832;28;20495;-88
2021/12/08 02:15:37;;;;;;;1.03;0.97;;;;;;;;;;5046946;28;20425;-88
2021/12/08 02:18:03;;;;;;;0.97;0.97;;;;;;;;;;5027945;28;20456;-88
2021/12/08 02:20:30;;;;;;;0.90;0.90;;;;;;;;;;5023954;28;20465;-88
2021/12/08 02:23:15;;;;;;;0.90;0.90;;;;;;;;;;5044232;28;20487;-87
2021/12/08 02:25:45;;;;;;;1.67;1.57;;;;;;;;;;5050835;28;20437;-89
2021/12/08 02:28:11;;;;;;;0.90;0.90;;;;;;;;;;5050282;28;20453;-87
2021/12/08 02:30:45;;;;;;;0.90;0.90;;;;;;;;;;5031528;28;20516;-88
2021/12/08 02:50:27;;;;;;;0.87;0.87;;;;;;;;;;4991158;28;20965;-88
2021/12/08 02:52:53;;;;;;;0.80;0.80;;;;;;;;;;5026815;28;20542;-89
2021/12/08 02:59:10;;;;;;;0.93;0.93;;;;;;;;;;4967325;28;20492;-89
2021/12/08 03:01:37;;;;;;;0.80;0.80;;;;;;;;;;5047643;28;20440;-89
2021/12/08 03:04:04;;;;;;;1.70;1.60;;;;;;;;;;5045643;28;20421;-89
2021/12/08 03:06:30;;;;;;;1.27;1.17;;;;;;;;;;5031110;28;20428;-90
2021/12/08 03:08:56;;;;;;;5.17;3.00;;;;;;;;;;5031036;28;20420;-88
2021/12/08 03:11:31;;;;;;;1.20;1.10;;;;;;;;;;5014207;28;20529;-88
2021/12/08 03:14:11;;;;;;;1.63;1.57;;;;;;;;;;5007137;28;20492;-88
2021/12/08 03:16:46;;;;;;;0.90;0.90;;;;;;;;;;5027584;28;20787;-88
2021/12/08 03:19:12;;;;;;;0.80;0.80;;;;;;;;;;5010168;28;20430;-87
2021/12/08 03:21:38;;;;;;;0.97;0.97;;;;;;;;;;5029622;28;20862;-88
2021/12/08 03:24:28;;;;;;;1.67;1.57;;;;;;;;;;5029941;28;20438;-88
2021/12/08 03:27:07;;;;;;;0.80;0.80;;;;;;;;;;5025822;28;20477;-90
2021/12/08 03:32:08;;;;;;;0.97;0.97;;;;;;;;;;5029050;28;21024;-88
2021/12/08 03:34:37;;;;;;;2.83;2.73;;;;;;;;;;5005833;28;20441;-88
2021/12/08 03:37:04;;;;;;;1.03;1.00;;;;;;;;;;5010477;28;20923;-89
2021/12/08 03:39:31;;;;;;;0.80;0.80;;;;;;;;;;5028497;28;20949;-88
2021/12/08 03:41:57;;;;;;;0.80;0.80;;;;;;;;;;5002823;28;20423;-88
2021/12/08 03:44:23;;;;;;;1.20;1.10;;;;;;;;;;5011631;28;20968;-88
2021/12/08 03:46:50;;;;;;;1.10;1.00;;;;;;;;;;5027689;28;20485;-89
2021/12/08 03:49:17;;;;;;;0.90;0.90;;;;;;;;;;5010601;28;20442;-89
2021/12/08 03:51:43;;;;;;;1.30;1.20;;;;;;;;;;5011285;28;20426;-88
2021/12/08 03:54:10;;;;;;;1.10;1.00;;;;;;;;;;5029419;28;20585;-89
2021/12/08 03:56:36;;;;;;;3.73;2.50;;;;;;;;;;5006468;28;20443;-88
2021/12/08 03:59:03;;;;;;;1.10;1.00;;;;;;;;;;5025885;28;20449;-89
2021/12/08 04:01:29;;;;;;;0.90;0.90;;;;;;;;;;5021676;28;20462;-89
2021/12/08 04:04:01;;;;;;;0.90;0.90;;;;;;;;;;5009832;28;20490;-88
2021/12/08 04:06:34;;;;;;;1.87;1.77;;;;;;;;;;5011337;28;20533;-89
2021/12/08 04:09:05;;;;;;;0.80;0.80;;;;;;;;;;5023059;28;21307;-89
2021/12/08 04:11:31;;;;;;;1.30;1.20;;;;;;;;;;4999756;28;20466;-88
2021/12/08 04:14:08;;;;;;;0.80;0.80;;;;;;;;;;5028164;28;20481;-89
2021/12/08 04:16:38;;;;;;;1.50;1.40;;;;;;;;;;5028156;28;20460;-87
2021/12/08 04:19:05;;;;;;;1.00;0.90;;;;;;;;;;5026423;28;20879;-88
2021/12/08 04:21:31;;;;;;;0.80;0.80;;;;;;;;;;5026334;28;20442;-89
2021/12/08 04:23:57;;;;;;;1.30;1.20;;;;;;;;;;5026647;28;20462;-88
2021/12/08 04:26:30;;;;;;;1.10;1.00;;;;;;;;;;5029375;28;20430;-89
2021/12/08 04:28:56;;;;;;;0.80;0.80;;;;;;;;;;5025808;28;20800;-88
2021/12/08 04:31:24;;;;;;;1.77;1.67;;;;;;;;;;5030599;28;20441;-89
2021/12/08 04:33:54;;;;;;;0.80;0.80;;;;;;;;;;5033194;28;20830;-87
2021/12/08 04:36:21;;;;;;;1.03;0.93;;;;;;;;;;5015379;28;20452;-89
2021/12/08 04:39:02;;;;;;;0.80;0.80;;;;;;;;;;5031114;28;20449;-88
2021/12/08 04:47:35;;;;;;;0.93;0.90;;;;;;;;;;4978045;28;20425;-88
2021/12/08 04:52:52;;;;;;;1.00;0.90;;;;;;;;;;5029507;28;20477;-87
2021/12/08 05:01:19;;;;;;;0.80;0.80;;;;;;;;;;5027180;28;20429;-88
2021/12/08 05:04:13;;;;;;;1.37;1.27;;;;;;;;;;5025745;28;20430;-88
2021/12/08 05:09:37;;;;;;;1.43;1.33;;;;;;;;;;4959818;28;20423;-88
2021/12/08 05:12:08;;;;;;;1.27;1.17;;;;;;;;;;5043730;28;20481;-87
2021/12/08 05:14:44;;;;;;;0.97;0.93;;;;;;;;;;5048180;28;20885;-86
2021/12/08 05:17:20;;;;;;;3.43;2.67;;;;;;;;;;5046185;28;20425;-89
2021/12/08 05:19:47;;;;;;;1.20;1.10;;;;;;;;;;5021848;28;20437;-87
2021/12/08 05:25:23;;;;;;;0.93;0.90;;;;;;;;;;4962680;28;20451;-90
2021/12/08 05:27:50;;;;;;;0.80;0.80;;;;;;;;;;5032805;28;20459;-88
2021/12/08 05:30:18;;;;;;;1.60;1.50;;;;;;;;;;5044708;28;20441;-88
2021/12/08 05:32:45;;;;;;;1.10;1.00;;;;;;;;;;5044490;28;20458;-89
2021/12/08 05:35:24;;;;;;;;;;;;;;;;;;;;;
2021/12/08 05:37:51;;;;;;;1.00;0.90;;;;;;;;;;5043099;28;20467;-88
2021/12/08 05:40:20;;;;;;;1.57;1.47;;;;;;;;;;5051013;28;20945;-87
2021/12/08 05:42:49;;;;;;;1.00;0.90;;;;;;;;;;5046051;28;20926;-89
2021/12/08 05:45:17;;;;;;;2.00;1.90;;;;;;;;;;5030988;28;20469;-87
2021/12/08 05:47:43;;;;;;;1.57;1.47;;;;;;;;;;5050529;28;20437;-86
2021/12/08 05:50:13;;;;;;;1.00;0.90;;;;;;;;;;5058155;28;20444;-88
2021/12/08 05:52:50;;;;;;;1.00;0.90;;;;;;;;;;5030929;28;20520;-89
2021/12/08 05:55:16;;;;;;;1.43;1.33;;;;;;;;;;5030575;28;20454;-88
2021/12/08 05:57:43;;;;;;;1.00;0.90;;;;;;;;;;5036274;28;21000;-88
2021/12/08 06:00:22;;;;;;;0.80;0.80;;;;;;;;;;5029846;28;20952;-88
2021/12/08 06:02:52;;;;;;;1.60;1.50;;;;;;;;;;5046408;28;20437;-87
2021/12/08 06:05:18;;;;;;;1.77;1.50;;;;;;;;;;5032306;28;20893;-88
2021/12/08 06:07:45;;;;;;;0.93;0.90;;;;;;;;;;5028840;28;20845;-85
2021/12/08 06:10:14;;;;;;;1.80;1.67;;;;;;;;;;5048184;28;20956;-89
2021/12/08 06:12:41;;;;;;;0.90;0.90;;;;;;;;;;5033419;28;20492;-91
2021/12/08 06:15:07;;;;;;;2.50;1.47;;;;;;;;;;5050295;28;20491;-92
2021/12/08 06:17:33;;;;;;;0.90;0.90;;;;;;;;;;5047172;28;20453;-89
2021/12/08 06:20:02;;;;;;;0.77;0.70;;;;;;;;;;5033114;28;20937;-90
2021/12/08 06:22:31;;;;;;;0.77;0.77;;;;;;;;;;5024339;28;20459;-93
2021/12/08 06:24:57;;;;;;;1.07;1.00;;;;;;;;;;5034231;28;20480;-93
2021/12/08 06:27:24;;;;;;;2.90;2.80;;;;;;;;;;5044221;28;20476;-94
2021/12/08 06:30:08;;;;;;;8.63;1.77;;;;;;;;;;5033928;28;20472;-94
2021/12/08 06:32:39;;;;;;;1.93;1.83;;;;;;;;;;5067320;28;20744;-96
2021/12/08 06:35:19;;;;;;;2.30;1.60;;;;;;;;;;5036180;28;20500;-95
2021/12/08 06:38:00;;;;;;;1.67;1.57;;;;;;;;;;5059026;28;20436;-96
2021/12/08 06:43:36;;;;;;;2.13;2.03;;;;;;;;;;5074898;28;20416;-96
2021/12/08 06:51:34;;;;;;;1.77;1.67;;;;;;;;;;5004063;28;20488;-96
2021/12/08 06:54:06;;;;;;;0.97;0.97;;;;;;;;;;4982871;28;20503;-96
2021/12/08 06:56:34;;;;;;;0.73;0.73;;;;;;;;;;5000426;28;21071;-96
2021/12/08 06:59:02;;;;;;;1.43;1.33;;;;;;;;;;4988916;28;20520;-93
2021/12/08 07:01:47;;;;;;;0.80;0.80;;;;;;;;;;4999709;28;20535;-96
2021/12/08 07:04:29;;;;;;;0.80;0.80;;;;;;;;;;4975222;28;20917;-91
2021/12/08 07:07:19;;;;;;;;;;;;;;;;;;;;;
2021/12/08 07:09:51;;;;;;;0.97;0.97;;;;;;;;;;4983440;28;20446;-94
2021/12/08 07:12:25;;;;;;;0.87;0.87;;;;;;;;;;4993587;28;20962;-95
2021/12/08 07:15:08;;;;;;;2.27;2.17;;;;;;;;;;4991773;28;20462;-94
2021/12/08 07:17:35;;;;;;;1.00;1.00;;;;;;;;;;4990379;28;20440;-96
2021/12/08 07:23:01;;;;;;;0.90;0.90;;;;;;;;;;4981528;28;20456;-95
2021/12/08 07:25:39;;;;;;;;;;;;;;;;;;;;;
2021/12/08 07:28:12;;;;;;;3.77;2.33;;;;;;;;;;5000301;28;20938;-94
2021/12/08 07:30:43;;;;;;;1.30;1.17;;;;;;;;;;4986505;28;20468;-92
2021/12/08 07:33:09;;;;;;;1.87;1.73;;;;;;;;;;4991882;28;21019;-93
2021/12/08 07:35:37;;;;;;;2.80;2.70;;;;;;;;;;4990150;28;20479;-94
2021/12/08 07:38:05;;;;;;;2.70;2.50;;;;;;;;;;4991468;28;20447;-93
2021/12/08 07:40:40;;;;;;;1.10;1.10;;;;;;;;;;4995411;28;20470;-95
2021/12/08 07:43:20;;;;;;;0.83;0.83;;;;;;;;;;4978330;28;20848;-93
2021/12/08 07:48:57;;;;;;;1.00;1.00;;;;;;;;;;4972223;28;20431;-93
2021/12/08 07:51:38;;;;;;;0.87;0.87;;;;;;;;;;5007319;28;20507;-93
2021/12/08 07:54:45;;;;;;;0.80;0.80;;;;;;;;;;4976250;28;20479;-93
2021/12/08 07:56:58;;;;;;;1.00;1.00;;;;;;;;;;4984580;28;20447;-90
2021/12/08 07:59:24;;;;;;;2.70;2.50;;;;;;;;;;4989926;28;20452;-90
2021/12/08 08:02:16;;;;;;;0.80;0.80;;;;;;;;;;4968650;28;20518;-91
2021/12/08 08:04:47;;;;;;;0.80;0.80;;;;;;;;;;4984228;28;20425;-90
2021/12/08 08:07:14;;;;;;;0.80;0.80;;;;;;;;;;4992157;28;20531;-90
2021/12/08 08:09:57;;;;;;;1.40;1.30;;;;;;;;;;5007949;28;20436;-93
2021/12/08 08:12:24;;;;;;;1.30;1.20;;;;;;;;;;4994378;28;20471;-95
2021/12/08 08:14:53;;;;;;;3.53;2.50;;;;;;;;;;4994368;28;20990;-94
2021/12/08 08:17:25;;;;;;;0.83;0.83;;;;;;;;;;5007927;28;20423;-96
2021/12/08 08:20:16;;;;;;;0.80;0.80;;;;;;;;;;5017552;28;20448;-96
2021/12/08 08:22:42;;;;;;;1.50;1.43;;;;;;;;;;4989756;28;20526;-90
2021/12/08 08:25:38;;;;;;;1.00;1.00;;;;;;;;;;4994846;28;20444;-92
2021/12/08 08:28:06;;;;;;;3.10;3.00;;;;;;;;;;4976754;28;20443;-90
2021/12/08 08:30:34;;;;;;;0.80;0.80;;;;;;;;;;4979367;28;20614;-91
2021/12/08 08:36:08;;;;;;;0.90;0.90;;;;;;;;;;5038668;23;20483;-96
2021/12/08 08:38:42;;;;;;;3.63;3.43;;;;;;;;;;5050534;23;20614;-87
2021/12/08 08:41:50;;;;;;;0.90;0.90;;;;;;;;;;5020446;28;21088;-87
2021/12/08 08:44:46;;;;;;;0.80;0.80;;;;;;;;;;5018283;28;20441;-88
2021/12/08 08:47:17;;;;;;;1.00;1.00;;;;;;;;;;4998640;28;20426;-92
2021/12/08 08:49:49;;;;;;;1.00;1.00;;;;;;;;;;5032832;28;20515;-90
2021/12/08 08:52:19;;;;;;;1.23;1.13;;;;;;;;;;5030513;28;20422;-89
2021/12/08 08:54:49;;;;;;;0.90;0.90;;;;;;;;;;5013179;28;20442;-90
2021/12/08 08:57:17;;;;;;;0.90;0.90;;;;;;;;;;5029335;28;20487;-91
2021/12/08 08:59:48;;;;;;;0.90;0.90;;;;;;;;;;5031415;28;20954;-92
2021/12/08 09:02:17;;;;;;;2.40;1.90;;;;;;;;;;5012979;28;20439;-92
2021/12/08 09:04:46;;;;;;;0.93;0.93;;;;;;;;;;5032206;28;21865;-93
2021/12/08 09:07:18;;;;;;;0.90;0.90;;;;;;;;;;5013760;28;20422;-92
2021/12/08 09:09:48;;;;;;;1.47;1.40;;;;;;;;;;5014484;28;20521;-90
2021/12/08 09:12:26;;;;;;;1.00;1.00;;;;;;;;;;5014091;28;20827;-93
2021/12/08 09:15:15;;;;;;;0.90;0.90;;;;;;;;;;5013848;28;20434;-92
2021/12/08 09:18:11;;;;;;;0.90;0.90;;;;;;;;;;5023709;28;20842;-91
2021/12/08 09:21:15;;;;;;;0.90;0.90;;;;;;;;;;5032568;28;20438;-93
2021/12/08 09:23:42;;;;;;;0.70;0.70;;;;;;;;;;5029787;28;20488;-88
2021/12/08 09:26:09;;;;;;;1.23;1.17;;;;;;;;;;5019588;28;20438;-88
2021/12/08 09:29:04;;;;;;;1.17;1.07;;;;;;;;;;5012389;28;20492;-87
2021/12/08 09:31:55;;;;;;;2.80;2.70;;;;;;;;;;5011007;28;20442;-92
2021/12/08 09:34:36;;;;;;;0.90;0.90;;;;;;;;;;5011786;28;20509;-90
2021/12/08 09:40:22;;;;;;;0.70;0.67;;;;;;;;;;4968009;28;20823;-86
2021/12/08 09:42:53;;;;;;;1.03;1.03;;;;;;;;;;4995023;28;20436;-88
2021/12/08 09:45:34;;;;;;;0.80;0.80;;;;;;;;;;4982816;28;20515;-87
2021/12/08 09:48:04;;;;;;;1.87;1.77;;;;;;;;;;5007524;28;20447;-89
2021/12/08 09:50:30;;;;;;;1.10;1.10;;;;;;;;;;5006649;28;21222;-90
2021/12/08 09:52:57;;;;;;;7.80;3.70;;;;;;;;;;5009564;28;20980;-89
2021/12/08 09:55:23;;;;;;;0.90;0.90;;;;;;;;;;4991213;28;20485;-90
2021/12/08 09:58:06;;;;;;;1.23;1.23;;;;;;;;;;4995334;28;20431;-90
2021/12/08 10:00:34;;;;;;;0.83;0.83;;;;;;;;;;5015578;28;20485;-89
2021/12/08 10:03:17;;;;;;;0.80;0.80;;;;;;;;;;4997993;28;20474;-88
2021/12/08 10:05:44;;;;;;;2.70;2.60;;;;;;;;;;5015631;28;20439;-88
2021/12/08 10:10:55;;;;;;;1.37;1.30;;;;;;;;;;5013406;28;20469;-90
2021/12/08 10:13:22;;;;;;;0.90;0.90;;;;;;;;;;5002287;28;20474;-92
2021/12/08 10:15:48;;;;;;;1.63;1.53;;;;;;;;;;5013448;28;20422;-92
2021/12/08 10:18:14;;;;;;;1.60;1.47;;;;;;;;;;5013797;28;20581;-93
2021/12/08 10:20:40;;;;;;;2.23;2.03;;;;;;;;;;5018771;28;20438;-91
2021/12/08 10:23:18;;;;;;;0.80;0.80;;;;;;;;;;5000041;28;20419;-91
2021/12/08 10:25:49;;;;;;;3.80;2.70;;;;;;;;;;5001539;28;20903;-92
2021/12/08 10:28:17;;;;;;;1.67;1.57;;;;;;;;;;4995863;28;20438;-91
2021/12/08 10:30:47;;;;;;;0.80;0.80;;;;;;;;;;5014011;28;20431;-92
2021/12/08 10:33:37;;;;;;;1.97;1.80;;;;;;;;;;5007824;28;20590;-92
2021/12/08 10:36:15;;;;;;;1.13;1.13;;;;;;;;;;5007892;28;20432;-92
2021/12/08 10:38:41;;;;;;;0.90;0.90;;;;;;;;;;5000241;28;20851;-92
2021/12/08 10:41:08;;;;;;;0.80;0.80;;;;;;;;;;5006008;28;20435;-91
2021/12/08 10:43:34;;;;;;;0.70;0.70;;;;;;;;;;5010791;28;20455;-95
2021/12/08 10:46:08;;;;;;;1.53;1.43;;;;;;;;;;5016081;28;20515;-93
2021/12/08 10:48:40;;;;;;;1.30;1.20;;;;;;;;;;5013607;28;20846;-92
2021/12/08 10:54:30;;;;;;;2.40;2.20;;;;;;;;;;5005739;28;21017;-94
2021/12/08 10:56:57;;;;;;;0.80;0.80;;;;;;;;;;4995147;28;20439;-94
2021/12/08 10:59:28;;;;;;;1.57;1.47;;;;;;;;;;5013107;28;20434;-94
2021/12/08 11:01:54;;;;;;;0.80;0.80;;;;;;;;;;5019393;28;20504;-95
2021/12/08 11:04:28;;;;;;;1.10;1.10;;;;;;;;;;5018448;28;20427;-94
2021/12/08 11:07:03;;;;;;;1.97;1.87;;;;;;;;;;5011314;28;20438;-93
2021/12/08 11:09:38;;;;;;;0.80;0.80;;;;;;;;;;5005227;28;20431;-93
2021/12/08 11:12:04;;;;;;;2.70;2.40;;;;;;;;;;5006131;28;20431;-93
2021/12/08 11:14:41;;;;;;;0.80;0.80;;;;;;;;;;4995638;28;20911;-93
2021/12/08 11:17:23;;;;;;;0.80;0.80;;;;;;;;;;5003524;28;20442;-94
2021/12/08 11:19:49;;;;;;;2.53;2.33;;;;;;;;;;5012372;28;20407;-93
2021/12/08 11:22:16;;;;;;;0.90;0.90;;;;;;;;;;5009850;28;20519;-92
2021/12/08 11:24:56;;;;;;;3.23;3.03;;;;;;;;;;5013142;28;20419;-94
2021/12/08 11:27:36;;;;;;;0.73;0.70;;;;;;;;;;5009640;28;20538;-93
2021/12/08 11:30:13;;;;;;;2.93;2.80;;;;;;;;;;4999365;28;20522;-95
2021/12/08 11:32:39;;;;;;;0.70;0.70;;;;;;;;;;5011637;28;20478;-96
2021/12/08 11:35:05;;;;;;;1.43;1.33;;;;;;;;;;4999215;28;20446;-95
2021/12/08 11:37:35;;;;;;;0.70;0.63;;;;;;;;;;5015228;28;20439;-96
2021/12/08 11:40:02;;;;;;;0.80;0.80;;;;;;;;;;5026651;28;20985;-95
2021/12/08 11:42:31;;;;;;;1.60;1.50;;;;;;;;;;5038973;28;20434;-96
2021/12/08 11:44:58;;;;;;;0.80;0.80;;;;;;;;;;5049020;28;20426;-96
2021/12/08 11:47:27;;;;;;;1.07;1.07;;;;;;;;;;5028747;28;20466;-93
2021/12/08 11:49:55;;;;;;;1.10;1.07;;;;;;;;;;5024591;28;20428;-95
2021/12/08 11:52:23;;;;;;;3.00;2.70;;;;;;;;;;5043442;28;20796;-96
2021/12/08 11:55:09;;;;;;;0.80;0.80;;;;;;;;;;5026892;28;20434;-96
2021/12/08 11:57:36;;;;;;;1.87;1.73;;;;;;;;;;5029564;28;20520;-96
2021/12/08 12:00:02;;;;;;;1.37;1.27;;;;;;;;;;5048346;28;20419;-96
2021/12/08 12:02:30;;;;;;;0.80;0.77;;;;;;;;;;5024626;28;20418;-96
2021/12/08 12:04:56;;;;;;;2.13;2.03;;;;;;;;;;5027338;28;20442;-95
2021/12/08 12:07:23;;;;;;;2.53;2.43;;;;;;;;;;5031110;28;20573;-95
2021/12/08 12:09:49;;;;;;;1.20;1.13;;;;;;;;;;5025492;28;20446;-96
2021/12/08 12:12:16;;;;;;;0.70;0.70;;;;;;;;;;5031681;28;20418;-95
2021/12/08 12:14:42;;;;;;;2.27;2.13;;;;;;;;;;5041924;28;20437;-95
2021/12/08 12:17:08;;;;;;;1.00;1.00;;;;;;;;;;5014642;28;20921;-95
2021/12/08 12:19:38;;;;;;;0.80;0.80;;;;;;;;;;5027249;28;20561;-95
2021/12/08 12:22:19;;;;;;;1.33;1.27;;;;;;;;;;5030408;28;20787;-96
2021/12/08 12:24:48;;;;;;;4.20;3.33;;;;;;;;;;5018637;28;20444;-94
2021/12/08 12:27:33;;;;;;;0.80;0.77;;;;;;;;;;5012505;28;20454;-94
2021/12/08 12:30:09;;;;;;;2.10;1.97;;;;;;;;;;5031186;28;20418;-95
2021/12/08 12:32:43;;;;;;;1.07;1.03;;;;;;;;;;5021969;28;20608;-93
2021/12/08 12:35:10;;;;;;;1.77;1.67;;;;;;;;;;5038947;28;20434;-94
2021/12/08 12:37:36;;;;;;;0.80;0.80;;;;;;;;;;5028543;28;20449;-94
2021/12/08 12:40:05;;;;;;;1.50;1.40;;;;;;;;;;5013169;28;20481;-94
2021/12/08 12:42:51;;;;;;;1.87;1.20;;;;;;;;;;5027606;28;20925;-92
2021/12/08 12:45:17;;;;;;;0.97;0.90;;;;;;;;;;5033139;28;20540;-95
2021/12/08 12:48:03;;;;;;;0.87;0.87;;;;;;;;;;5008419;28;20443;-95
2021/12/08 12:50:29;;;;;;;0.80;0.80;;;;;;;;;;5041150;28;20482;-94
2021/12/08 12:52:56;;;;;;;0.90;0.90;;;;;;;;;;5040747;28;20474;-95
2021/12/08 12:55:29;;;;;;;1.00;1.00;;;;;;;;;;5036877;28;20439;-94
2021/12/08 12:58:02;;;;;;;0.70;0.70;;;;;;;;;;5045515;28;21270;-93
2021/12/08 13:00:30;;;;;;;0.90;0.90;;;;;;;;;;5020566;28;20460;-93
2021/12/08 13:02:55;;;;;;;1.37;1.27;;;;;;;;;;5045708;28;20760;-93
2021/12/08 13:05:21;;;;;;;0.77;0.73;;;;;;;;;;5035805;28;20450;-94
2021/12/08 13:08:00;;;;;;;3.83;3.63;;;;;;;;;;5014915;28;20726;-93
2021/12/08 13:10:38;;;;;;;1.93;1.83;;;;;;;;;;5035456;28;20429;-94
2021/12/08 13:13:11;;;;;;;0.80;0.80;;;;;;;;;;5033854;28;20481;-93
2021/12/08 13:15:38;;;;;;;0.73;0.70;;;;;;;;;;5030275;28;20449;-94
2021/12/08 13:18:08;;;;;;;1.03;1.03;;;;;;;;;;5030772;28;20511;-91
2021/12/08 13:20:55;;;;;;;0.80;0.80;;;;;;;;;;5026937;28;20666;-90
2021/12/08 13:23:25;;;;;;;0.90;0.90;;;;;;;;;;5028140;28;20922;-89
2021/12/08 13:26:17;;;;;;;0.93;0.93;;;;;;;;;;5029807;28;20442;-88
2021/12/08 13:31:47;;;;;;;3.73;3.53;;;;;;;;;;5032509;28;20441;-89
2021/12/08 13:34:14;;;;;;;2.03;1.93;;;;;;;;;;5023166;28;20491;-90
2021/12/08 13:36:47;;;;;;;1.50;1.40;;;;;;;;;;5001379;28;20528;-90
2021/12/08 13:39:21;;;;;;;1.13;1.10;;;;;;;;;;5030337;28;21040;-89
2021/12/08 13:41:55;;;;;;;1.60;1.53;;;;;;;;;;5034420;28;20430;-92
2021/12/08 13:44:26;;;;;;;1.10;1.10;;;;;;;;;;5035701;28;20564;-91
2021/12/08 13:46:53;;;;;;;1.23;1.13;;;;;;;;;;5029921;28;20433;-90
2021/12/08 13:49:26;;;;;;;0.83;0.83;;;;;;;;;;5034460;28;20978;-89
2021/12/08 13:52:08;;;;;;;1.07;1.07;;;;;;;;;;5037737;28;20435;-90
2021/12/08 13:54:36;;;;;;;0.90;0.90;;;;;;;;;;5011289;28;20920;-85
2021/12/08 13:57:03;;;;;;;1.30;1.20;;;;;;;;;;5012167;28;20434;-84
2021/12/08 13:59:48;;;;;;;0.90;0.90;;;;;;;;;;5027662;28;21077;-87
2021/12/08 14:02:21;;;;;;;0.70;0.70;;;;;;;;;;5019992;28;20435;-88
2021/12/08 14:04:47;;;;;;;0.80;0.80;;;;;;;;;;5029251;28;20480;-88
2021/12/08 14:07:19;;;;;;;0.80;0.80;;;;;;;;;;5012061;28;20434;-87
2021/12/08 14:09:45;;;;;;;0.93;0.93;;;;;;;;;;5011975;28;20426;-88
2021/12/08 14:12:11;;;;;;;0.87;0.87;;;;;;;;;;5012056;28;20434;-90
2021/12/08 14:14:37;;;;;;;0.90;0.90;;;;;;;;;;5011712;28;20482;-85
2021/12/08 14:17:03;;;;;;;1.57;1.47;;;;;;;;;;5010834;28;20422;-88
2021/12/08 14:19:39;;;;;;;0.70;0.70;;;;;;;;;;5028989;28;20953;-85
2021/12/08 14:22:05;;;;;;;3.60;3.30;;;;;;;;;;5030311;28;20430;-95
2021/12/08 14:24:31;;;;;;;0.90;0.90;;;;;;;;;;5032205;28;20446;-88
2021/12/08 14:26:58;;;;;;;0.80;0.80;;;;;;;;;;5011345;28;21017;-90
2021/12/08 14:29:24;;;;;;;0.80;0.80;;;;;;;;;;5010749;28;20934;-87
2021/12/08 14:31:51;;;;;;;1.50;1.40;;;;;;;;;;5029803;28;20469;-89
2021/12/08 14:34:26;;;;;;;0.90;0.90;;;;;;;;;;5029520;28;20500;-89
2021/12/08 14:36:53;;;;;;;3.37;3.07;;;;;;;;;;5012103;28;20941;-88
2021/12/08 14:39:30;;;;;;;0.90;0.90;;;;;;;;;;5011559;28;20568;-87
2021/12/08 14:41:58;;;;;;;0.80;0.80;;;;;;;;;;5012462;28;20424;-89
2021/12/08 14:44:28;;;;;;;2.90;2.70;;;;;;;;;;5011137;28;20836;-84
2021/12/08 14:47:11;;;;;;;1.23;1.13;;;;;;;;;;5031619;28;20803;-96
2021/12/08 14:49:40;;;;;;;0.90;0.90;;;;;;;;;;5037188;28;20488;-93
2021/12/08 14:52:07;;;;;;;6.83;2.27;;;;;;;;;;5038286;28;20438;-95
2021/12/08 14:54:41;;;;;;;0.80;0.80;;;;;;;;;;5016810;28;20516;-93
2021/12/08 14:57:18;;;;;;;3.50;3.20;;;;;;;;;;5022547;28;20533;-93
2021/12/08 14:59:43;;;;;;;1.90;1.73;;;;;;;;;;5015669;28;20440;-93
2021/12/08 15:02:10;;;;;;;1.83;1.73;;;;;;;;;;5016170;28;20501;-93
2021/12/08 15:04:37;;;;;;;1.30;1.20;;;;;;;;;;5021035;28;20242;-94
2021/12/08 15:07:04;;;;;;;6.07;2.80;;;;;;;;;;5035210;28;20480;-95
2021/12/08 15:09:30;;;;;;;2.43;2.27;;;;;;;;;;5012887;28;20451;-94
2021/12/08 15:11:58;;;;;;;0.80;0.80;;;;;;;;;;5032888;28;20437;-93
2021/12/08 15:14:25;;;;;;;0.90;0.90;;;;;;;;;;5029309;28;20490;-92
2021/12/08 15:16:52;;;;;;;1.10;1.10;;;;;;;;;;5030288;28;20473;-94
2021/12/08 15:19:18;;;;;;;0.83;0.83;;;;;;;;;;5012375;28;20450;-92
2021/12/08 15:21:50;;;;;;;0.80;0.80;;;;;;;;;;5015505;28;20469;-93
2021/12/08 15:24:18;;;;;;;2.50;2.40;;;;;;;;;;5015921;28;20442;-94
2021/12/08 15:26:44;;;;;;;1.07;1.07;;;;;;;;;;5012358;28;21028;-93
2021/12/08 15:29:19;;;;;;;1.20;1.13;;;;;;;;;;5029687;28;20434;-93
2021/12/08 15:31:48;;;;;;;2.17;2.07;;;;;;;;;;5032361;28;20426;-93
2021/12/08 15:34:33;;;;;;;0.70;0.70;;;;;;;;;;5019588;28;20480;-93
2021/12/08 15:37:07;;;;;;;0.80;0.80;;;;;;;;;;5024322;28;20454;-92
2021/12/08 15:39:35;;;;;;;1.73;1.63;;;;;;;;;;5032671;28;20454;-94
2021/12/08 15:42:01;;;;;;;1.00;1.00;;;;;;;;;;5025257;28;20482;-94
2021/12/08 15:44:27;;;;;;;0.80;0.80;;;;;;;;;;5028919;28;20437;-94
2021/12/08 15:46:55;;;;;;;0.80;0.80;;;;;;;;;;5016797;28;20430;-95
2021/12/08 15:49:23;;;;;;;1.93;1.83;;;;;;;;;;5025781;28;20438;-94
2021/12/08 15:51:49;;;;;;;0.90;0.90;;;;;;;;;;5014756;28;20441;-94
2021/12/08 15:54:18;;;;;;;1.17;1.07;;;;;;;;;;5030766;28;20477;-92
2021/12/08 15:56:44;;;;;;;1.77;1.67;;;;;;;;;;5031079;28;20445;-92
2021/12/08 15:59:17;;;;;;;1.07;1.03;;;;;;;;;;5024524;28;20433;-94
2021/12/08 16:01:44;;;;;;;1.73;1.63;;;;;;;;;;5034677;28;20421;-93
2021/12/08 16:04:10;;;;;;;0.80;0.70;;;;;;;;;;5020501;28;20434;-94
2021/12/08 16:06:39;;;;;;;0.90;0.90;;;;;;;;;;5004669;28;20449;-96
2021/12/08 16:09:17;;;;;;;1.00;1.00;;;;;;;;;;5030578;28;20518;-92
2021/12/08 16:11:43;;;;;;;1.00;1.00;;;;;;;;;;5011143;28;20433;-93
2021/12/08 16:14:26;;;;;;;0.80;0.80;;;;;;;;;;5046835;28;20480;-94
2021/12/08 16:16:53;;;;;;;0.80;0.70;;;;;;;;;;5033023;28;20449;-95
2021/12/08 16:19:21;;;;;;;0.80;0.80;;;;;;;;;;5032204;28;20438;-95
2021/12/08 16:21:46;;;;;;;2.80;2.60;;;;;;;;;;5017263;28;20450;-93
2021/12/08 16:24:13;;;;;;;9.93;2.50;;;;;;;;;;5030281;28;20430;-93
2021/12/08 16:26:49;;;;;;;1.77;1.37;;;;;;;;;;5029376;28;20487;-94
2021/12/08 16:29:15;;;;;;;0.90;0.90;;;;;;;;;;5017696;28;20454;-95
2021/12/08 16:31:41;;;;;;;0.80;0.70;;;;;;;;;;5036945;28;20771;-94
2021/12/08 16:34:07;;;;;;;2.60;2.40;;;;;;;;;;5034481;28;20481;-95